Time;durP1;ratioP1;P1;durP2;ratioP2;P2;SDS_P1;SDS_P2;PMS_P1;PMS_P2;Temp;Humidity;BMP_temperature;BMP_pressure;BME280_temperature;BME280_humidity;BME280_pressure;Samples;Min_cycle;Max_cycle;Signal;HPM_P1;HPM_P2
2023/04/04 00:00:35;;;;;;;6.28;1.37;;;;;;;0.51;58.50;98897.72;4485290;31;20092;-68
2023/04/04 00:03:03;;;;;;;4.50;1.83;;;;;;;0.45;58.66;98892.84;4485073;31;20105;-68
2023/04/04 00:05:30;;;;;;;2.50;1.65;;;;;;;0.38;59.32;98898.38;4484200;32;20101;-68
2023/04/04 00:07:57;;;;;;;6.15;1.90;;;;;;;0.32;59.69;98896.94;4485129;31;20152;-68
2023/04/04 00:10:26;;;;;;;4.43;1.70;;;;;;;0.26;60.37;98903.19;4485283;31;20100;-68
2023/04/04 00:12:53;;;;;;;4.68;1.87;;;;;;;0.21;60.37;98905.13;4485151;31;20160;-67
2023/04/04 00:15:20;;;;;;;6.30;1.87;;;;;;;0.10;61.17;98897.88;4483894;32;20530;-68
2023/04/04 00:17:48;;;;;;;5.80;2.22;;;;;;;0.10;61.59;98900.44;4485363;32;20568;-68
2023/04/04 00:20:15;;;;;;;5.30;2.22;;;;;;;0.01;61.61;98902.59;4485382;31;20083;-67
2023/04/04 00:22:43;;;;;;;3.62;1.83;;;;;;;0.00;61.67;98906.94;4484958;31;20092;-67
2023/04/04 00:25:11;;;;;;;3.50;1.73;;;;;;;0.00;61.79;98906.94;4485260;31;20092;-67
2023/04/04 00:27:38;;;;;;;4.85;2.17;;;;;;;-0.07;62.07;98906.34;4485077;31;20445;-67
2023/04/04 00:30:06;;;;;;;8.13;1.95;;;;;;;-0.12;62.50;98904.84;4485160;31;20084;-68
2023/04/04 00:32:33;;;;;;;4.85;2.05;;;;;;;-0.23;63.11;98906.19;4485183;31;20167;-67
2023/04/04 00:35:01;;;;;;;5.50;1.67;;;;;;;-0.17;63.41;98909.38;4484748;32;20119;-68
2023/04/04 00:37:28;;;;;;;3.90;1.87;;;;;;;-0.17;63.36;98909.38;4485265;31;20072;-67
2023/04/04 00:39:55;;;;;;;3.22;1.50;;;;;;;-0.23;63.33;98906.19;4484970;31;20511;-67
2023/04/04 00:42:22;;;;;;;2.70;1.45;;;;;;;-0.28;63.44;98912.41;4485160;31;20563;-68
2023/04/04 00:44:53;;;;;;;2.83;1.60;;;;;;;-0.32;63.61;98914.28;4484945;31;20097;-67
2023/04/04 00:47:24;;;;;;;3.55;1.42;;;;;;;-0.30;63.47;98911.63;4485122;31;20092;-67
2023/04/04 00:49:52;;;;;;;4.35;1.45;;;;;;;-0.27;63.70;98908.91;4484969;31;20068;-68
2023/04/04 00:52:19;;;;;;;8.77;2.00;;;;;;;-0.34;64.56;98918.66;4484900;31;20100;-67
2023/04/04 00:54:47;;;;;;;2.12;1.20;;;;;;;-0.34;64.52;98904.97;4484688;31;20135;-68
2023/04/04 00:57:15;;;;;;;3.92;1.85;;;;;;;-0.44;65.03;98909.66;4484371;31;20403;-67
2023/04/04 00:59:42;;;;;;;2.78;1.52;;;;;;;-0.47;65.68;98907.19;4484719;31;20168;-67
2023/04/04 01:02:10;;;;;;;1.92;1.20;;;;;;;-0.52;65.54;98901.41;4484922;32;20180;-68
2023/04/04 01:04:37;;;;;;;3.28;1.45;;;;;;;-0.56;65.96;98903.25;4484598;31;20573;-68
2023/04/04 01:07:04;;;;;;;5.65;1.90;;;;;;;-0.61;66.02;98894.91;4483672;32;20444;-67
2023/04/04 01:09:32;;;;;;;5.95;1.70;;;;;;;-0.65;66.63;98881.34;4484739;32;20092;-67
2023/04/04 01:12:01;;;;;;;3.15;1.20;;;;;;;-0.69;66.56;98877.22;4483809;32;20160;-68
2023/04/04 01:14:28;;;;;;;3.28;1.17;;;;;;;-0.76;66.82;98876.66;4483677;32;20108;-67
2023/04/04 01:16:56;;;;;;;3.12;1.60;;;;;;;-0.75;66.86;98873.16;4485047;31;20112;-68
2023/04/04 01:19:30;;;;;;;3.42;1.50;;;;;;;-0.70;67.04;98875.53;4483633;32;20508;-67
2023/04/04 01:22:01;;;;;;;5.90;1.77;;;;;;;-0.66;66.44;98866.81;4483626;32;20104;-67
2023/04/04 01:24:32;;;;;;;15.30;1.67;;;;;;;-0.74;67.02;98863.72;4484864;31;20104;-67
2023/04/04 01:27:01;;;;;;;3.67;1.20;;;;;;;-0.73;66.90;98855.09;4484964;31;20107;-68
2023/04/04 01:29:28;;;;;;;4.03;1.40;;;;;;;-0.75;67.44;98847.44;4484809;31;20143;-68
2023/04/04 01:32:03;;;;;;;3.53;1.73;;;;;;;-0.81;67.81;98850.28;4484880;31;20099;-67
2023/04/04 01:34:33;;;;;;;2.85;1.33;;;;;;;-0.74;67.24;98846.56;4483048;32;20096;-67
2023/04/04 01:37:06;;;;;;;4.65;1.42;;;;;;;-0.70;66.86;98834.37;4483527;32;20092;-67
2023/04/04 01:39:55;;;;;;;2.78;1.30;;;;;;;-0.69;66.16;98830.94;4483089;32;20135;-67
2023/04/04 01:42:23;;;;;;;1.70;1.27;;;;;;;-0.74;66.74;98827.72;4484543;32;20212;-67
2023/04/04 01:44:55;;;;;;;3.58;1.70;;;;;;;-0.76;66.54;98824.34;4483201;32;20164;-67
2023/04/04 01:47:23;;;;;;;3.53;1.92;;;;;;;-0.70;66.34;98818.94;4484737;32;20080;-68
2023/04/04 01:49:52;;;;;;;6.43;1.45;;;;;;;-0.72;66.18;98824.16;4484412;31;20096;-67
2023/04/04 01:52:20;;;;;;;3.80;1.58;;;;;;;-0.63;66.08;98815.22;4484574;32;20123;-67
2023/04/04 01:54:47;;;;;;;2.17;1.37;;;;;;;-0.68;65.94;98814.59;4482896;32;20127;-67
2023/04/04 01:57:15;;;;;;;2.03;1.20;;;;;;;-0.63;66.30;98809.25;4484460;31;20510;-67
2023/04/04 01:59:42;;;;;;;2.33;1.30;;;;;;;-0.63;66.03;98798.97;4484399;31;20119;-68
2023/04/04 02:02:10;;;;;;;3.45;1.20;;;;;;;-0.55;65.61;98796.87;4484457;31;20097;-68
2023/04/04 02:04:38;;;;;;;4.18;1.50;;;;;;;-0.52;64.59;98795.91;4484176;31;20242;-67
2023/04/04 02:07:06;;;;;;;2.62;1.67;;;;;;;-0.48;64.06;98793.16;4484193;31;20164;-68
2023/04/04 02:09:34;;;;;;;2.35;1.27;;;;;;;-0.47;64.21;98788.81;4484416;32;20123;-68
2023/04/04 02:12:02;;;;;;;1.75;1.08;;;;;;;-0.44;64.19;98788.69;4486175;31;20441;-68
2023/04/04 02:14:29;;;;;;;3.05;1.30;;;;;;;-0.47;64.18;98779.38;4486103;31;20104;-68
2023/04/04 02:16:56;;;;;;;4.62;2.03;;;;;;;-0.52;64.42;98778.72;4485880;32;20171;-67
2023/04/04 02:19:24;;;;;;;2.53;1.00;;;;;;;-0.48;64.12;98771.72;4486009;31;20131;-67
2023/04/04 02:21:52;;;;;;;1.70;1.15;;;;;;;-0.52;64.30;98770.19;4486173;32;20100;-67
2023/04/04 02:24:20;;;;;;;3.25;1.50;;;;;;;-0.54;63.92;98765.94;4485813;31;20092;-67
2023/04/04 02:26:47;;;;;;;2.67;1.40;;;;;;;-0.49;63.73;98764.91;4486014;31;20124;-67
2023/04/04 02:29:15;;;;;;;2.62;1.45;;;;;;;-0.50;63.87;98758.09;4485900;31;20097;-68
2023/04/04 02:31:42;;;;;;;3.15;1.50;;;;;;;-0.52;63.52;98760.72;4485984;32;20553;-67
2023/04/04 02:34:10;;;;;;;2.00;1.08;;;;;;;-0.54;63.77;98752.25;4485910;31;20528;-67
2023/04/04 02:36:37;;;;;;;2.17;1.42;;;;;;;-0.51;63.86;98756.44;4486047;31;20096;-68
2023/04/04 02:39:05;;;;;;;3.85;1.23;;;;;;;-0.58;64.10;98751.53;4486194;31;20142;-67
2023/04/04 02:41:32;;;;;;;2.28;1.20;;;;;;;-0.57;64.15;98745.50;4486135;31;20160;-67
2023/04/04 02:43:59;;;;;;;5.95;1.33;;;;;;;-0.51;64.06;98751.28;4486141;31;20093;-68
2023/04/04 02:46:26;;;;;;;2.08;1.02;;;;;;;-0.59;63.88;98752.44;4484689;32;20159;-67
2023/04/04 02:48:55;;;;;;;8.25;1.73;;;;;;;-0.59;64.44;98749.88;4486189;32;20196;-67
2023/04/04 02:51:22;;;;;;;4.50;1.70;;;;;;;-0.61;64.32;98753.41;4486020;31;20194;-67
2023/04/04 02:53:50;;;;;;;6.35;1.75;;;;;;;-0.67;64.41;98762.22;4485750;31;20958;-67
2023/04/04 02:56:17;;;;;;;2.62;1.62;;;;;;;-0.70;64.74;98759.78;4485756;31;20105;-67
2023/04/04 02:58:47;;;;;;;5.47;1.70;;;;;;;-0.72;64.58;98767.56;4484440;32;20189;-68
2023/04/04 03:01:14;;;;;;;3.58;1.42;;;;;;;-0.65;64.66;98763.00;4485626;31;20092;-68
2023/04/04 03:03:41;;;;;;;3.05;1.50;;;;;;;-0.78;64.66;98765.25;4486001;31;20112;-67
2023/04/04 03:06:10;;;;;;;1.75;1.05;;;;;;;-0.77;64.72;98763.53;4485770;31;20151;-67
2023/04/04 03:08:37;;;;;;;2.15;1.50;;;;;;;-0.79;64.74;98762.75;4485786;32;20156;-68
2023/04/04 03:11:04;;;;;;;2.70;1.50;;;;;;;-0.73;64.51;98773.63;4484344;32;20147;-67
2023/04/04 03:13:32;;;;;;;3.40;1.55;;;;;;;-0.77;64.76;98782.37;4485659;31;20100;-67
2023/04/04 03:16:01;;;;;;;3.03;1.15;;;;;;;-0.72;64.68;98782.19;4485848;31;20096;-68
2023/04/04 03:18:29;;;;;;;2.95;1.27;;;;;;;-0.67;64.32;98782.81;4485832;32;20114;-67
2023/04/04 03:20:57;;;;;;;1.75;1.08;;;;;;;-0.69;64.48;98787.19;4485232;31;20505;-67
2023/04/04 03:23:24;;;;;;;2.15;1.17;;;;;;;-0.77;65.06;98781.56;4485473;31;20148;-67
2023/04/04 03:25:53;;;;;;;2.85;1.42;;;;;;;-0.83;65.11;98787.78;4485444;31;20175;-67
2023/04/04 03:28:21;;;;;;;2.65;1.33;;;;;;;-0.83;65.34;98787.78;4485403;32;20148;-68
2023/04/04 03:30:49;;;;;;;3.90;1.60;;;;;;;-0.91;65.95;98779.53;4485559;31;20462;-67
2023/04/04 03:33:16;;;;;;;2.83;1.52;;;;;;;-0.90;65.95;98781.22;4485539;32;20088;-68
2023/04/04 03:35:44;;;;;;;2.80;1.10;;;;;;;-0.97;66.08;98778.09;4485521;31;20123;-68
2023/04/04 03:38:11;;;;;;;2.55;1.20;;;;;;;-0.95;66.29;98786.56;4485559;31;20514;-67
2023/04/04 03:40:40;;;;;;;2.92;1.87;;;;;;;-0.95;66.46;98781.41;4485352;31;20138;-67
2023/04/04 03:43:09;;;;;;;6.05;1.52;;;;;;;-0.97;66.37;98783.22;4485874;31;20458;-68
2023/04/04 03:45:36;;;;;;;1.92;1.15;;;;;;;-1.00;66.65;98783.34;4485688;31;20092;-67
2023/04/04 03:48:03;;;;;;;3.40;1.50;;;;;;;-0.98;66.42;98794.41;4485758;31;20169;-68
2023/04/04 03:50:31;;;;;;;4.37;1.37;;;;;;;-1.08;66.79;98793.94;4485409;31;20401;-68
2023/04/04 03:52:59;;;;;;;3.97;1.02;;;;;;;-1.11;66.81;98794.06;4485421;31;20101;-68
2023/04/04 03:55:26;;;;;;;1.30;1.08;;;;;;;-1.00;66.49;98795.34;4485378;32;20536;-68
2023/04/04 03:57:54;;;;;;;3.72;1.50;;;;;;;-1.04;66.60;98792.09;4484256;32;20143;-68
2023/04/04 04:00:21;;;;;;;2.65;1.42;;;;;;;-0.96;66.22;98791.78;4485609;31;20096;-68
2023/04/04 04:02:49;;;;;;;1.83;1.27;;;;;;;-0.93;65.95;98791.63;4485349;31;20171;-68
2023/04/04 04:05:17;;;;;;;2.80;1.42;;;;;;;-0.86;65.71;98792.19;4485516;31;20088;-68
2023/04/04 04:07:45;;;;;;;1.85;1.02;;;;;;;-0.93;66.10;98787.31;4484836;31;20084;-68
2023/04/04 04:10:15;;;;;;;2.17;1.30;;;;;;;-0.92;66.08;98791.56;4485022;31;20910;-67
2023/04/04 04:12:43;;;;;;;5.30;1.62;;;;;;;-0.99;66.45;98789.31;4485146;31;20110;-67
2023/04/04 04:15:10;;;;;;;4.12;1.65;;;;;;;-1.00;66.56;98785.94;4485380;32;20088;-67
2023/04/04 04:17:41;;;;;;;2.53;1.33;;;;;;;-0.99;65.99;98785.00;4485140;31;20085;-68
2023/04/04 04:20:10;;;;;;;2.65;1.37;;;;;;;-0.92;66.52;98783.84;4484810;31;20097;-68
2023/04/04 04:22:37;;;;;;;3.95;1.45;;;;;;;-0.87;65.79;98786.22;4485114;31;20087;-68
2023/04/04 04:25:05;;;;;;;5.30;1.27;;;;;;;-0.93;66.53;98781.34;4485204;32;20115;-68
2023/04/04 04:27:32;;;;;;;3.08;1.80;;;;;;;-1.05;67.62;98779.31;4484850;32;20484;-68
2023/04/04 04:29:59;;;;;;;7.55;1.52;;;;;;;-1.07;68.14;98781.94;4477092;31;20108;-69
2023/04/04 04:32:28;;;;;;;3.40;1.58;;;;;;;-1.16;68.18;98784.88;4475089;32;20704;-68
2023/04/04 04:34:56;;;;;;;4.20;1.83;;;;;;;-1.18;69.10;98776.38;4479147;32;20191;-68
2023/04/04 04:37:27;;;;;;;3.45;1.60;;;;;;;-1.24;69.83;98772.34;4469221;32;20154;-68
2023/04/04 04:39:56;;;;;;;7.85;1.90;;;;;;;-1.23;70.09;98773.19;4468384;31;20177;-68
2023/04/04 04:42:24;;;;;;;2.05;1.45;;;;;;;-1.27;70.77;98783.59;4477051;32;20084;-68
2023/04/04 04:44:52;;;;;;;4.57;1.77;;;;;;;-1.38;71.39;98767.75;4463337;32;20131;-68
2023/04/04 04:47:20;;;;;;;4.90;1.83;;;;;;;-1.36;71.42;98772.81;4466360;32;20101;-68
2023/04/04 04:49:48;;;;;;;2.30;1.33;;;;;;;-1.30;71.65;98770.88;4470301;32;20481;-68
2023/04/04 04:52:18;;;;;;;3.90;1.60;;;;;;;-1.36;71.96;98767.69;4475600;32;20105;-68
2023/04/04 04:54:45;;;;;;;4.10;1.92;;;;;;;-1.27;71.71;98769.91;4472361;32;20116;-68
2023/04/04 04:57:13;;;;;;;3.17;1.75;;;;;;;-1.23;72.20;98773.19;4474881;32;20146;-68
2023/04/04 04:59:41;;;;;;;7.62;2.33;;;;;;;-1.25;72.93;98778.38;4472903;32;20096;-68
2023/04/04 05:02:09;;;;;;;2.35;1.50;;;;;;;-1.29;73.28;98777.69;4470989;32;20123;-68
2023/04/04 05:04:40;;;;;;;5.12;1.90;;;;;;;-1.26;73.91;98776.69;4472563;32;20185;-68
2023/04/04 05:07:07;;;;;;;2.30;1.42;;;;;;;-1.31;74.11;98776.06;4473595;32;20083;-68
2023/04/04 05:09:34;;;;;;;4.47;2.53;;;;;;;-1.19;73.95;98769.59;4470097;31;20126;-68
2023/04/04 05:12:02;;;;;;;8.32;1.87;;;;;;;-1.20;74.51;98763.59;4478634;32;20205;-68
2023/04/04 05:14:33;;;;;;;3.58;1.65;;;;;;;-1.17;73.97;98760.06;4473818;31;20100;-68
2023/04/04 05:17:01;;;;;;;2.58;1.73;;;;;;;-1.19;74.36;98760.13;4477229;32;20437;-68
2023/04/04 05:19:30;;;;;;;3.45;1.75;;;;;;;-1.23;73.92;98768.03;4482326;32;20096;-68
2023/04/04 05:21:58;;;;;;;4.72;2.20;;;;;;;-1.14;73.47;98765.91;4483839;31;20108;-68
2023/04/04 05:24:26;;;;;;;6.22;1.75;;;;;;;-1.19;73.59;98769.59;4481070;31;20172;-68
2023/04/04 05:26:53;;;;;;;6.97;2.00;;;;;;;-1.14;73.39;98773.63;4468619;32;20150;-68
2023/04/04 05:29:20;;;;;;;2.92;1.95;;;;;;;-1.05;73.01;98777.56;4473104;32;20471;-69
2023/04/04 05:31:48;;;;;;;4.37;2.47;;;;;;;-1.10;72.61;98772.59;4470874;32;20164;-68
2023/04/04 05:34:16;;;;;;;5.35;1.80;;;;;;;-0.99;72.65;98779.03;4469630;31;20167;-68
2023/04/04 05:36:43;;;;;;;2.55;1.67;;;;;;;-0.98;72.67;98781.53;4468545;31;20131;-67
2023/04/04 05:39:10;;;;;;;6.07;2.20;;;;;;;-0.96;73.17;98771.19;4473695;32;20198;-68
2023/04/04 05:41:38;;;;;;;1.87;1.50;;;;;;;-1.04;73.75;98775.84;4469184;32;20157;-68
2023/04/04 05:44:07;;;;;;;2.65;1.92;;;;;;;-0.94;72.92;98779.66;4473712;31;20131;-68
2023/04/04 05:46:36;;;;;;;3.05;1.87;;;;;;;-0.90;73.49;98786.38;4469052;31;20100;-68
2023/04/04 05:49:03;;;;;;;3.12;1.75;;;;;;;-0.92;73.62;98786.44;4465266;32;20557;-68
2023/04/04 05:51:31;;;;;;;4.53;1.95;;;;;;;-0.83;72.59;98792.06;4469485;31;20118;-68
2023/04/04 05:54:00;;;;;;;8.77;2.50;;;;;;;-0.69;72.20;98794.91;4474215;31;20177;-68
2023/04/04 05:56:28;;;;;;;3.85;1.90;;;;;;;-0.48;71.60;98797.47;4468718;31;20178;-68
2023/04/04 05:58:56;;;;;;;6.10;2.20;;;;;;;-0.49;72.08;98793.22;4470436;32;20105;-68
2023/04/04 06:01:24;;;;;;;3.50;1.62;;;;;;;-0.59;72.00;98792.75;4469191;32;20092;-68
2023/04/04 06:03:52;;;;;;;2.83;1.85;;;;;;;-0.55;71.55;98795.13;4471150;31;20132;-68
2023/04/04 06:06:22;;;;;;;5.45;2.37;;;;;;;-0.67;72.85;98802.56;4469727;31;20135;-68
2023/04/04 06:08:50;;;;;;;4.53;2.30;;;;;;;-0.64;72.80;98805.81;4463912;31;20122;-68
2023/04/04 06:11:23;;;;;;;4.20;1.87;;;;;;;-0.47;72.03;98805.13;4472966;31;20520;-68
2023/04/04 06:13:51;;;;;;;6.22;2.45;;;;;;;-0.26;71.41;98803.34;4470083;31;20618;-68
2023/04/04 06:16:19;;;;;;;3.40;1.85;;;;;;;-0.17;71.57;98804.66;4468618;31;20130;-68
2023/04/04 06:18:47;;;;;;;5.25;1.75;;;;;;;-0.02;70.93;98800.56;4469606;31;20112;-67
2023/04/04 06:21:15;;;;;;;3.97;2.47;;;;;;;0.04;70.89;98792.53;4468825;31;21886;-68
2023/04/04 06:23:42;;;;;;;7.10;1.83;;;;;;;0.07;70.77;98801.88;4453742;31;20664;-69
2023/04/04 06:26:11;;;;;;;2.70;1.50;;;;;;;0.29;68.55;98801.72;4471570;31;20143;-69
2023/04/04 06:28:47;;;;;;;5.35;2.20;;;;;;;0.38;68.59;98801.28;4466307;31;20885;-68
2023/04/04 06:31:16;;;;;;;3.62;2.12;;;;;;;0.57;68.52;98797.84;4468932;31;20092;-69
2023/04/04 06:33:43;;;;;;;5.22;2.17;;;;;;;0.67;67.73;98781.03;4472947;31;20402;-68
2023/04/04 06:36:12;;;;;;;7.47;2.05;;;;;;;0.84;67.55;98768.13;4468731;31;20135;-67
2023/04/04 06:38:39;;;;;;;6.68;2.45;;;;;;;0.79;67.27;98757.22;4469619;31;20568;-66
2023/04/04 06:41:07;;;;;;;5.65;2.22;;;;;;;0.78;68.93;98746.97;4469069;31;20080;-67
2023/04/04 06:43:34;;;;;;;3.83;2.22;;;;;;;0.87;67.89;98757.66;4469934;32;20549;-68
2023/04/04 06:46:02;;;;;;;6.37;2.55;;;;;;;0.85;67.63;98762.06;4467996;31;20119;-69
2023/04/04 06:48:29;;;;;;;6.10;2.30;;;;;;;0.93;67.74;98769.41;4466718;31;20446;-68
2023/04/04 06:50:56;;;;;;;4.28;2.15;;;;;;;0.85;68.54;98756.91;4472078;31;20869;-68
2023/04/04 06:53:25;;;;;;;10.43;2.58;;;;;;;0.95;67.21;98757.28;4465571;31;20109;-68
2023/04/04 06:55:52;;;;;;;6.03;2.28;;;;;;;0.96;66.25;98763.28;4470803;31;20122;-69
2023/04/04 06:58:20;;;;;;;4.53;2.33;;;;;;;1.06;66.45;98759.34;4468892;31;20537;-68
2023/04/04 07:00:48;;;;;;;3.95;2.00;;;;;;;1.17;66.50;98771.69;4472456;31;20142;-68
2023/04/04 07:03:15;;;;;;;4.80;1.98;;;;;;;1.34;64.45;98766.47;4473781;31;20123;-68
2023/04/04 07:05:43;;;;;;;7.07;2.67;;;;;;;1.34;64.94;98768.25;4470732;31;20096;-68
2023/04/04 07:08:10;;;;;;;7.25;2.90;;;;;;;1.18;66.21;98763.88;4472377;32;20127;-68
2023/04/04 07:10:37;;;;;;;3.92;2.10;;;;;;;1.21;64.99;98766.28;4469372;32;20163;-68
2023/04/04 07:13:07;;;;;;;5.00;2.45;;;;;;;1.56;65.56;98773.97;4474629;31;20134;-68
2023/04/04 07:15:35;;;;;;;3.75;2.15;;;;;;;1.67;65.97;98773.41;4464365;31;20093;-68
2023/04/04 07:18:03;;;;;;;17.17;2.83;;;;;;;1.89;65.14;98782.56;4472786;31;20089;-67
2023/04/04 07:20:31;;;;;;;4.60;2.72;;;;;;;1.70;64.12;98777.56;4469588;31;20155;-67
2023/04/04 07:22:58;;;;;;;3.47;1.67;;;;;;;1.71;65.78;98782.66;4469589;31;20108;-68
2023/04/04 07:25:25;;;;;;;4.68;2.33;;;;;;;1.97;65.36;98788.19;4468521;31;20096;-68
2023/04/04 07:27:53;;;;;;;6.55;2.72;;;;;;;1.99;64.36;98790.69;4470141;31;20122;-68
2023/04/04 07:30:32;;;;;;;4.70;2.12;;;;;;;1.89;63.68;98786.00;4468671;31;20095;-66
2023/04/04 07:32:59;;;;;;;5.10;2.35;;;;;;;1.93;63.71;98781.50;4470612;31;20139;-67
2023/04/04 07:35:34;;;;;;;5.53;2.40;;;;;;;1.93;63.28;98792.66;4472433;31;20089;-68
2023/04/04 07:38:10;;;;;;;4.97;2.33;;;;;;;2.10;64.91;98788.34;4470541;31;20105;-68
2023/04/04 07:40:43;;;;;;;4.45;2.40;;;;;;;2.22;63.32;98798.00;4471028;31;20096;-66
2023/04/04 07:43:20;;;;;;;4.03;2.17;;;;;;;2.25;62.73;98787.50;4470481;31;20158;-68
2023/04/04 07:45:56;;;;;;;8.02;2.50;;;;;;;2.38;60.88;98792.03;4470597;31;20090;-67
2023/04/04 07:48:23;;;;;;;4.10;1.83;;;;;;;2.42;60.50;98784.00;4473005;31;20462;-67
2023/04/04 07:51:09;;;;;;;6.95;2.25;;;;;;;2.63;60.18;98781.97;4472717;31;20149;-67
2023/04/04 07:53:55;;;;;;;4.20;2.28;;;;;;;3.01;59.00;98781.53;4471957;31;20158;-66
2023/04/04 07:56:40;;;;;;;5.85;2.08;;;;;;;3.40;56.79;98792.19;4471874;31;20097;-68
2023/04/04 07:59:17;;;;;;;3.58;2.03;;;;;;;3.10;58.02;98784.50;4469792;31;21178;-69
2023/04/04 08:01:50;;;;;;;2.20;1.67;;;;;;;3.42;56.42;98786.94;4475502;31;20122;-67
2023/04/04 08:04:33;;;;;;;7.30;2.40;;;;;;;3.45;56.10;98786.75;4472742;31;20500;-67
2023/04/04 08:07:01;;;;;;;11.32;2.03;;;;;;;3.55;55.33;98787.88;4470784;31;20139;-66
2023/04/04 08:09:47;;;;;;;2.72;1.60;;;;;;;3.77;55.57;98790.00;4469084;31;20166;-68
2023/04/04 08:12:14;;;;;;;3.08;1.50;;;;;;;3.85;55.58;98787.75;4467914;32;20101;-67
2023/04/04 08:14:41;;;;;;;7.65;2.37;;;;;;;3.95;53.14;98792.38;4470246;31;20119;-66
2023/04/04 08:17:09;;;;;;;3.83;1.80;;;;;;;3.84;53.54;98790.44;4470105;31;20231;-68
2023/04/04 08:19:36;;;;;;;3.08;1.85;;;;;;;4.02;52.34;98794.50;4473352;31;20160;-65
2023/04/04 08:22:04;;;;;;;4.53;2.25;;;;;;;4.20;52.57;98791.69;4465469;32;20143;-64
2023/04/04 08:24:31;;;;;;;2.65;1.80;;;;;;;4.34;52.98;98803.78;4464084;32;20174;-64
2023/04/04 08:26:58;;;;;;;3.87;1.92;;;;;;;4.24;51.32;98808.75;4468614;31;20139;-67
2023/04/04 08:29:33;;;;;;;8.38;1.98;;;;;;;4.76;51.86;98795.00;4475181;31;20155;-67
2023/04/04 08:32:01;;;;;;;4.32;1.92;;;;;;;4.52;51.24;98794.00;4470259;31;20100;-68
2023/04/04 08:34:28;;;;;;;8.98;2.40;;;;;;;4.40;50.95;98791.25;4470155;32;20142;-67
2023/04/04 08:36:56;;;;;;;4.15;2.05;;;;;;;4.44;51.70;98795.31;4470849;31;20131;-67
2023/04/04 08:39:23;;;;;;;3.03;1.73;;;;;;;4.57;52.21;98786.75;4473438;31;20123;-66
2023/04/04 08:42:00;;;;;;;4.90;2.37;;;;;;;4.80;50.96;98790.47;4468209;31;20096;-67
2023/04/04 08:44:28;;;;;;;3.58;1.70;;;;;;;4.78;49.99;98787.97;4472268;31;20541;-68
2023/04/04 08:47:02;;;;;;;4.60;1.92;;;;;;;4.55;49.44;98786.03;4475740;31;20101;-68
2023/04/04 08:49:33;;;;;;;4.18;1.67;;;;;;;4.76;49.60;98778.62;4474803;31;20084;-68
2023/04/04 08:52:01;;;;;;;4.28;2.22;;;;;;;4.97;49.71;98771.19;4468125;31;20545;-68
2023/04/04 08:54:30;;;;;;;2.05;1.37;;;;;;;4.54;50.46;98773.97;4467428;32;20146;-67
2023/04/04 08:56:57;;;;;;;2.50;1.85;;;;;;;4.31;49.25;98776.28;4468646;31;20112;-67
2023/04/04 08:59:25;;;;;;;3.95;2.17;;;;;;;4.79;49.08;98762.84;4469972;31;20180;-68
2023/04/04 09:02:19;;;;;;;3.85;2.00;;;;;;;5.21;49.21;98768.72;4462873;31;20328;-66
2023/04/04 09:04:47;;;;;;;4.53;2.28;;;;;;;5.04;47.82;98761.22;4424393;32;20344;-68
2023/04/04 09:07:32;;;;;;;3.05;2.20;;;;;;;4.93;48.99;98764.53;4416008;32;21000;-69
2023/04/04 09:10:02;;;;;;;3.75;1.95;;;;;;;5.19;48.32;98748.97;4421828;32;20167;-67
2023/04/04 09:12:31;;;;;;;2.70;1.55;;;;;;;5.22;48.22;98761.75;4422226;32;20101;-68
2023/04/04 09:14:59;;;;;;;3.92;1.95;;;;;;;4.94;47.53;98758.41;4423211;32;20202;-68
2023/04/04 09:17:26;;;;;;;4.37;1.95;;;;;;;5.28;48.75;98764.78;4415751;32;20210;-67
2023/04/04 09:19:53;;;;;;;8.35;1.98;;;;;;;5.31;47.75;98764.59;4421476;32;20193;-68
2023/04/04 09:22:21;;;;;;;3.95;2.30;;;;;;;5.48;47.56;98754.78;4417926;32;20156;-67
2023/04/04 09:24:50;;;;;;;5.90;1.87;;;;;;;5.77;47.54;98755.38;4422176;32;20117;-69
2023/04/04 09:27:17;;;;;;;3.85;2.10;;;;;;;5.38;47.01;98764.97;4418469;32;20240;-69
2023/04/04 09:29:46;;;;;;;3.97;1.90;;;;;;;5.53;46.11;98762.25;4420158;32;20745;-70
2023/04/04 09:32:14;;;;;;;4.37;2.05;;;;;;;5.86;46.92;98754.75;4419566;32;20127;-69
2023/04/04 09:34:42;;;;;;;2.12;1.30;;;;;;;5.95;44.55;98768.00;4424915;32;20172;-67
2023/04/04 09:37:13;;;;;;;3.92;1.62;;;;;;;5.78;43.78;98759.63;4420562;32;20183;-68
2023/04/04 09:39:40;;;;;;;4.82;2.10;;;;;;;6.33;43.82;98761.91;4422325;32;22580;-68
2023/04/04 09:42:08;;;;;;;3.50;2.10;;;;;;;6.74;43.37;98753.69;4452940;31;20123;-68
2023/04/04 09:44:35;;;;;;;6.85;2.45;;;;;;;6.69;43.77;98753.22;4471887;31;20653;-68
2023/04/04 09:47:22;;;;;;;5.65;2.62;;;;;;;5.90;42.64;98754.53;4471894;32;20134;-68
2023/04/04 09:50:01;;;;;;;;;;;;;;;6.17;41.81;98746.56;4471137;31;20100;-68
2023/04/04 09:52:36;;;;;;;6.15;2.03;;;;;;;6.50;42.76;98742.47;4470595;31;20037;-69
2023/04/04 09:55:05;;;;;;;4.00;2.10;;;;;;;6.79;42.73;98737.72;4473727;31;20149;-67
2023/04/04 09:57:34;;;;;;;33.67;2.97;;;;;;;6.60;41.96;98740.88;4463914;32;20100;-67
2023/04/04 10:00:08;;;;;;;6.87;2.15;;;;;;;6.93;43.83;98744.50;4469890;31;20117;-67
2023/04/04 10:02:40;;;;;;;5.35;2.28;;;;;;;7.24;41.21;98737.81;4471683;31;20789;-67
2023/04/04 10:05:09;;;;;;;4.78;2.67;;;;;;;7.08;43.23;98740.75;4470447;32;20826;-67
2023/04/04 10:07:38;;;;;;;3.35;2.15;;;;;;;6.84;44.19;98753.00;4472981;31;20088;-68
2023/04/04 10:10:06;;;;;;;7.25;3.00;;;;;;;6.68;43.30;98756.75;4472655;31;20562;-68
2023/04/04 10:12:35;;;;;;;5.50;2.58;;;;;;;6.66;42.13;98743.03;4482533;31;20100;-67
2023/04/04 10:15:03;;;;;;;5.95;2.90;;;;;;;6.65;41.27;98750.94;4479538;31;20118;-67
2023/04/04 10:17:36;;;;;;;7.35;3.22;;;;;;;7.02;41.68;98743.00;4479737;31;20128;-66
2023/04/04 10:20:07;;;;;;;5.03;2.22;;;;;;;7.21;40.76;98742.44;4481464;31;20146;-67
2023/04/04 10:22:36;;;;;;;3.87;2.20;;;;;;;6.90;40.41;98734.31;4479889;31;20088;-66
2023/04/04 10:25:06;;;;;;;5.68;2.47;;;;;;;6.95;40.63;98731.38;4481540;31;20145;-68
2023/04/04 10:27:33;;;;;;;3.67;2.10;;;;;;;7.32;40.95;98734.63;4477582;31;20093;-69
2023/04/04 10:30:01;;;;;;;6.95;2.50;;;;;;;7.26;39.63;98729.88;4476761;31;20104;-69
2023/04/04 10:32:47;;;;;;;7.43;2.67;;;;;;;7.42;39.17;98724.34;4482240;31;20100;-68
2023/04/04 10:35:14;;;;;;;6.78;2.83;;;;;;;7.52;38.81;98724.44;4479229;32;21060;-68
2023/04/04 10:37:53;;;;;;;4.37;2.70;;;;;;;7.73;37.90;98716.72;4475284;31;20080;-66
2023/04/04 10:40:24;;;;;;;3.58;2.15;;;;;;;7.90;38.97;98724.06;4478414;31;20136;-68
2023/04/04 10:42:52;;;;;;;4.18;2.12;;;;;;;7.80;38.72;98712.69;4478650;31;20229;-69
2023/04/04 10:45:20;;;;;;;4.37;2.37;;;;;;;7.52;38.59;98719.22;4476480;32;20110;-69
2023/04/04 10:47:49;;;;;;;2.87;1.80;;;;;;;7.60;38.43;98728.13;4477102;31;20168;-69
2023/04/04 10:50:18;;;;;;;3.25;1.80;;;;;;;7.59;38.52;98720.41;4478378;31;20095;-69
2023/04/04 10:52:46;;;;;;;5.70;1.73;;;;;;;7.27;38.93;98726.34;4481195;31;20108;-69
2023/04/04 10:55:14;;;;;;;2.58;1.55;;;;;;;7.24;38.39;98722.19;4479395;31;20130;-67
2023/04/04 10:57:50;;;;;;;3.47;1.60;;;;;;;7.58;38.52;98729.19;4478867;32;20096;-68
2023/04/04 11:00:19;;;;;;;3.00;1.83;;;;;;;8.09;40.97;98717.38;4480026;31;20718;-68
2023/04/04 11:02:50;;;;;;;2.97;2.03;;;;;;;8.35;37.55;98721.31;4478042;31;20127;-68
2023/04/04 11:05:31;;;;;;;3.58;1.65;;;;;;;7.90;38.29;98724.06;4481949;31;20101;-68
2023/04/04 11:08:03;;;;;;;5.65;1.95;;;;;;;8.22;37.05;98718.06;4481358;31;20135;-68
2023/04/04 11:10:36;;;;;;;5.15;1.70;;;;;;;8.67;37.32;98707.44;4480249;31;20153;-68
2023/04/04 11:13:14;;;;;;;4.32;2.00;;;;;;;8.99;37.07;98710.97;4478461;31;20123;-68
2023/04/04 11:16:03;;;;;;;4.18;2.12;;;;;;;8.56;36.78;98709.31;4475310;31;20231;-69
2023/04/04 11:18:31;;;;;;;4.40;1.90;;;;;;;8.49;36.77;98698.53;4481559;31;20105;-68
2023/04/04 11:21:06;;;;;;;3.90;1.90;;;;;;;8.28;38.00;98707.13;4481397;31;20340;-68
2023/04/04 11:24:03;;;;;;;2.85;1.92;;;;;;;8.53;36.83;98705.16;4477130;31;20100;-68
2023/04/04 11:26:30;;;;;;;3.87;2.20;;;;;;;8.71;36.50;98702.81;4469385;31;20114;-67
2023/04/04 11:28:58;;;;;;;8.20;2.78;;;;;;;8.89;37.42;98708.31;4478280;31;20099;-68
2023/04/04 11:31:32;;;;;;;2.47;1.70;;;;;;;8.91;36.86;98703.78;4481876;31;20160;-69
2023/04/04 11:34:03;;;;;;;4.00;1.67;;;;;;;9.41;36.15;98690.81;4479980;31;20137;-67
2023/04/04 11:36:40;;;;;;;4.45;1.92;;;;;;;9.48;34.90;98703.34;4479519;31;20101;-68
2023/04/04 11:39:14;;;;;;;3.78;2.35;;;;;;;9.30;35.20;98693.53;4474008;31;20507;-68
2023/04/04 11:41:48;;;;;;;7.45;2.83;;;;;;;9.91;37.08;98694.41;4475081;31;20189;-69
2023/04/04 11:44:16;;;;;;;4.53;2.12;;;;;;;9.65;35.66;98681.00;4482093;32;20088;-68
2023/04/04 11:46:46;;;;;;;5.45;2.35;;;;;;;9.46;35.96;98687.78;4481794;32;20089;-69